createdAt,value
2023-04-26T00:01:30.883Z,100.00
2023-04-26T00:06:37.355Z,100.00
2023-04-26T00:11:42.775Z,100.00
2023-04-26T00:16:48.710Z,100.00
2023-04-26T00:21:54.150Z,100.00
2023-04-26T00:27:00.815Z,100.00
2023-04-26T00:32:07.409Z,100.00
2023-04-26T00:37:13.021Z,100.00
2023-04-26T00:42:19.536Z,100.00
2023-04-26T00:47:26.191Z,100.00
2023-04-26T00:52:32.221Z,100.00
2023-04-26T00:57:41.714Z,100.00
2023-04-26T01:02:51.292Z,100.00
2023-04-26T01:07:57.878Z,100.00
2023-04-26T01:13:03.818Z,100.00
2023-04-26T01:18:09.878Z,100.00
2023-04-26T01:23:15.379Z,100.00
2023-04-26T01:28:21.024Z,100.00
2023-04-26T01:33:26.489Z,100.00
2023-04-26T01:38:31.917Z,100.00
2023-04-26T01:43:37.560Z,100.00
2023-04-26T01:48:43.195Z,100.00
2023-04-26T01:53:48.633Z,100.00
2023-04-26T01:58:56.325Z,100.00
2023-04-26T02:04:01.980Z,100.00
2023-04-26T02:09:09.184Z,100.00
2023-04-26T02:14:18.654Z,100.00
2023-04-26T02:19:24.032Z,100.00
2023-04-26T02:24:30.980Z,100.00
2023-04-26T02:29:44.383Z,100.00
2023-04-26T02:34:50.873Z,100.00
2023-04-26T02:39:56.396Z,100.00
2023-04-26T02:45:02.123Z,100.00
2023-04-26T02:50:09.729Z,100.00
2023-04-26T02:55:15.322Z,100.00
2023-04-26T03:00:22.201Z,100.00
2023-04-26T03:05:27.940Z,100.00
2023-04-26T03:10:33.806Z,100.00
2023-04-26T03:15:39.476Z,100.00
2023-04-26T03:20:45.595Z,100.00
2023-04-26T03:25:51.724Z,100.00
2023-04-26T03:30:57.202Z,100.00
2023-04-26T03:36:03.266Z,100.00
2023-04-26T03:41:09.863Z,100.00
2023-04-26T03:46:16.326Z,100.00
2023-04-26T03:51:28.281Z,100.00
2023-04-26T03:56:33.786Z,100.00
2023-04-26T04:01:39.997Z,100.00
2023-04-26T04:06:46.193Z,100.00
2023-04-26T04:11:52.447Z,100.00
2023-04-26T04:16:59.373Z,100.00
2023-04-26T04:22:05.348Z,100.00
2023-04-26T04:27:11.643Z,100.00
2023-04-26T04:32:18.967Z,98.54
2023-04-26T04:37:25.496Z,88.26
2023-04-26T04:42:32.330Z,81.19
2023-04-26T04:47:40.064Z,74.11
2023-04-26T04:52:45.697Z,65.88
2023-04-26T04:57:51.320Z,61.63
2023-04-26T05:02:57.709Z,59.62
2023-04-26T05:08:04.016Z,58.11
2023-04-26T05:13:09.506Z,56.28
2023-04-26T05:18:15.421Z,53.00
2023-04-26T05:23:21.622Z,51.87
2023-04-26T05:28:27.065Z,48.81
2023-04-26T05:33:46.373Z,45.20
2023-04-26T05:38:57.999Z,42.12
2023-04-26T05:44:03.446Z,42.63
2023-04-26T05:49:09.356Z,46.15
2023-04-26T05:54:14.796Z,48.74
2023-04-26T05:59:21.201Z,50.59
2023-04-26T06:04:27.006Z,52.59
2023-04-26T06:09:43.398Z,55.32
2023-04-26T06:14:49.148Z,56.45
2023-04-26T06:19:58.128Z,57.16
2023-04-26T06:25:04.752Z,56.29
2023-04-26T06:30:13.439Z,54.03
2023-04-26T06:35:24.760Z,48.39
2023-04-26T06:40:30.900Z,42.74
2023-04-26T06:45:36.957Z,39.87
2023-04-26T06:50:42.745Z,36.25
2023-04-26T06:55:48.304Z,34.44
2023-04-26T07:00:53.835Z,31.88
2023-04-26T07:05:59.347Z,31.59
2023-04-26T07:11:11.635Z,29.72
2023-04-26T07:16:17.088Z,29.76
2023-04-26T07:21:22.890Z,28.55
2023-04-26T07:26:28.640Z,26.88
2023-04-26T07:31:34.077Z,27.59
2023-04-26T07:36:39.502Z,27.41
2023-04-26T07:41:45.099Z,27.90
2023-04-26T07:46:51.233Z,27.67
2023-04-26T07:51:58.279Z,27.63
2023-04-26T07:57:03.698Z,25.87
2023-04-26T08:02:09.242Z,26.64
2023-04-26T08:07:15.451Z,28.88
2023-04-26T08:12:21.108Z,28.48
2023-04-26T08:17:26.886Z,26.95
2023-04-26T08:22:32.328Z,27.18
2023-04-26T08:27:37.961Z,27.37
2023-04-26T08:32:43.592Z,27.61
2023-04-26T08:37:49.087Z,29.66
2023-04-26T08:42:54.687Z,32.54
2023-04-26T08:48:04.962Z,34.61
2023-04-26T08:53:14.031Z,36.32
2023-04-26T08:58:21.533Z,38.39
2023-04-26T09:03:27.370Z,38.94
2023-04-26T09:08:35.562Z,34.56
2023-04-26T09:13:40.928Z,32.58
2023-04-26T09:18:57.568Z,34.31
2023-04-26T09:24:05.610Z,37.14
2023-04-26T09:29:16.226Z,38.37
2023-04-26T09:34:21.821Z,39.11
2023-04-26T09:39:37.544Z,40.69
2023-04-26T09:44:43.335Z,41.63
2023-04-26T09:49:51.418Z,42.37
2023-04-26T09:54:57.148Z,43.19
2023-04-26T10:00:12.398Z,43.60
2023-04-26T10:05:18.666Z,42.31
2023-04-26T10:10:24.074Z,41.32
2023-04-26T10:15:29.984Z,41.18
2023-04-26T10:20:39.565Z,41.60
2023-04-26T10:25:45.009Z,42.02
2023-04-26T10:30:57.721Z,41.51
2023-04-26T10:36:10.353Z,42.14
2023-04-26T10:41:31.079Z,40.58
2023-04-26T10:46:38.992Z,39.83
2023-04-26T10:52:13.557Z,39.00
2023-04-26T10:57:19.707Z,39.28
2023-04-26T11:02:57.982Z,40.27
2023-04-26T11:08:10.846Z,40.21
2023-04-26T11:13:17.047Z,39.47
2023-04-26T11:18:22.753Z,38.38
2023-04-26T11:23:30.188Z,38.18
2023-04-26T11:28:37.435Z,39.94
2023-04-26T11:33:43.988Z,39.83
2023-04-26T11:38:49.641Z,36.90
2023-04-26T11:43:55.430Z,38.00
2023-04-26T11:49:01.437Z,38.36
2023-04-26T11:54:07.102Z,37.56
2023-04-26T11:59:12.562Z,37.53
2023-04-26T12:04:18.162Z,38.31
2023-04-26T12:09:29.616Z,39.38
2023-04-26T12:14:36.110Z,40.50
2023-04-26T12:19:42.027Z,39.87
2023-04-26T12:24:48.371Z,40.20
2023-04-26T12:29:53.871Z,40.80
2023-04-26T12:34:59.392Z,40.57
2023-04-26T12:40:07.326Z,41.78
2023-04-26T12:45:13.207Z,41.66
2023-04-26T12:50:18.939Z,41.56
2023-04-26T12:55:25.126Z,41.54
2023-04-26T13:00:30.702Z,41.65
2023-04-26T13:05:36.405Z,41.86
2023-04-26T13:10:41.892Z,41.76
2023-04-26T13:15:47.610Z,40.93
2023-04-26T13:20:53.277Z,40.66
2023-04-26T13:25:58.870Z,40.44
2023-04-26T13:31:04.566Z,40.26
2023-04-26T13:36:10.441Z,40.45
2023-04-26T13:41:16.604Z,39.90
2023-04-26T13:46:22.503Z,39.61
2023-04-26T13:51:30.764Z,39.80
2023-04-26T13:56:36.371Z,40.73
2023-04-26T14:01:42.017Z,41.01
2023-04-26T14:06:47.573Z,41.05
2023-04-26T14:12:00.821Z,40.95
2023-04-26T14:17:13.963Z,41.79
2023-04-26T14:22:19.832Z,42.16
2023-04-26T14:27:25.409Z,43.25
2023-04-26T14:32:31.300Z,43.51
2023-04-26T14:37:37.004Z,43.32
2023-04-26T14:42:48.805Z,43.19
2023-04-26T14:47:54.474Z,43.74
2023-04-26T14:53:00.112Z,43.77
2023-04-26T14:58:05.961Z,44.22
2023-04-26T15:03:12.590Z,44.34
2023-04-26T15:08:22.591Z,44.15
2023-04-26T15:13:28.123Z,44.30
2023-04-26T15:18:33.649Z,44.63
2023-04-26T15:23:39.006Z,44.70
2023-04-26T15:28:44.396Z,45.00
2023-04-26T15:33:49.748Z,45.08
2023-04-26T15:38:55.875Z,45.12
2023-04-26T15:44:01.977Z,45.56
2023-04-26T15:49:07.447Z,46.30
2023-04-26T15:54:12.851Z,46.41
2023-04-26T15:59:18.751Z,46.39
2023-04-26T16:04:25.047Z,46.13
2023-04-26T16:09:30.860Z,45.61
2023-04-26T16:14:36.332Z,45.95
2023-04-26T16:19:42.291Z,45.86
2023-04-26T16:24:47.835Z,45.95
2023-04-26T16:29:53.959Z,46.07
2023-04-26T16:34:59.410Z,46.60
2023-04-26T16:40:08.068Z,46.78
2023-04-26T16:45:16.283Z,47.26
2023-04-26T16:50:23.167Z,48.17
2023-04-26T16:55:28.620Z,48.00
2023-04-26T17:00:34.312Z,48.47
2023-04-26T17:05:40.972Z,48.82
2023-04-26T17:10:48.900Z,49.37
2023-04-26T17:15:55.566Z,50.20
2023-04-26T17:21:01.760Z,50.67
2023-04-26T17:26:07.148Z,50.93
2023-04-26T17:31:12.793Z,51.01
2023-04-26T17:36:19.684Z,51.51
2023-04-26T17:41:25.357Z,51.52
2023-04-26T17:46:30.809Z,52.00
2023-04-26T17:51:36.408Z,52.49
2023-04-26T17:56:43.543Z,52.99
2023-04-26T18:01:49.108Z,53.07
2023-04-26T18:06:54.803Z,53.74
2023-04-26T18:12:00.377Z,53.06
2023-04-26T18:17:06.998Z,52.56
2023-04-26T18:22:12.420Z,53.15
2023-04-26T18:27:18.103Z,53.49
2023-04-26T18:32:23.874Z,53.34
2023-04-26T18:37:29.266Z,52.79
2023-04-26T18:42:35.118Z,53.01
2023-04-26T18:47:41.597Z,52.97
2023-04-26T18:52:47.062Z,52.91
2023-04-26T18:57:52.817Z,52.96
2023-04-26T19:02:58.501Z,53.48
2023-04-26T19:08:04.121Z,53.56
2023-04-26T19:13:09.564Z,53.41
2023-04-26T19:18:15.323Z,53.09
2023-04-26T19:23:21.914Z,53.50
2023-04-26T19:28:30.760Z,54.25
2023-04-26T19:33:37.155Z,55.18
2023-04-26T19:38:42.669Z,55.80
2023-04-26T19:43:48.262Z,56.18
2023-04-26T19:48:53.586Z,56.32
2023-04-26T19:53:59.184Z,57.17
2023-04-26T19:59:04.897Z,57.77
2023-04-26T20:04:10.997Z,57.84
2023-04-26T20:09:17.331Z,57.85
2023-04-26T20:14:22.883Z,58.20
2023-04-26T20:19:28.700Z,58.78
2023-04-26T20:24:33.839Z,58.81
2023-04-26T20:29:39.227Z,58.89
2023-04-26T20:34:44.595Z,58.98
2023-04-26T20:39:50.078Z,59.50
2023-04-26T20:44:56.588Z,59.54
2023-04-26T20:50:02.434Z,59.66
2023-04-26T20:55:09.201Z,59.90
2023-04-26T21:00:16.103Z,60.27
2023-04-26T21:05:22.398Z,60.59
2023-04-26T21:10:27.966Z,61.02
2023-04-26T21:15:34.287Z,61.27
2023-04-26T21:20:39.992Z,61.27
2023-04-26T21:25:50.647Z,61.49
2023-04-26T21:31:08.268Z,62.12
2023-04-26T21:36:13.995Z,62.83
2023-04-26T21:41:19.914Z,63.19
2023-04-26T21:46:26.343Z,63.26
2023-04-26T21:51:32.086Z,63.43
2023-04-26T21:56:37.817Z,63.62
2023-04-26T22:01:43.552Z,63.99
2023-04-26T22:06:50.149Z,64.38
2023-04-26T22:11:56.315Z,64.63
2023-04-26T22:17:02.657Z,65.06
2023-04-26T22:22:08.725Z,65.40
2023-04-26T22:27:14.460Z,65.60
2023-04-26T22:32:21.441Z,66.05
2023-04-26T22:37:27.444Z,66.42
2023-04-26T22:42:33.094Z,67.24
2023-04-26T22:47:38.955Z,67.74
2023-04-26T22:52:44.712Z,68.11
2023-04-26T22:57:50.455Z,68.67
2023-04-26T23:02:56.193Z,70.02
2023-04-26T23:08:01.815Z,70.43
2023-04-26T23:13:07.741Z,70.53
2023-04-26T23:18:13.858Z,70.55
2023-04-26T23:23:19.583Z,70.50
2023-04-26T23:28:25.592Z,70.64
2023-04-26T23:33:31.169Z,71.00
2023-04-26T23:38:36.761Z,71.73
2023-04-26T23:43:42.664Z,72.60
2023-04-26T23:48:48.350Z,73.95
2023-04-26T23:53:54.042Z,74.91
2023-04-26T23:58:59.854Z,75.88
